Terminal Aerodrome Forecast
Issued by NWS Duluth, MN

Home | Current Version | Previous Version | Text Only | Print | Product List | Glossary On
Versions: 1 2 3 4 5 6 7 8 9 10 11 12 13 14 15 16 17 18 19 20 21
000
FTUS43 KDLH 280800 AAA
TAFDLH
TAF AMD
KDLH 280821Z 2808/2906 18006KT P6SM VCSH SCT025 OVC050
      TEMPO 2808/2812 2SM -SN BR OVC025
     FM281200 12005KT 5SM -SN BKN025 OVC040
     FM281800 10006KT P6SM VCSH SCT025 OVC040
     FM290400 09006KT 6SM -PLSN OVC012=

USA.gov is the U.S. government's official web portal to all federal, state and local government web resources and services.